sensor_id;sensor_type;location;lat;lon;timestamp;P1;durP1;ratioP1;P2;durP2;ratioP2
67554;SDS011;54385;53.516;49.456;2023-11-19T00:00:06;1.55;;;0.70;;
67554;SDS011;54385;53.516;49.456;2023-11-19T00:02:40;1.52;;;0.98;;
67554;SDS011;54385;53.516;49.456;2023-11-19T00:05:08;1.33;;;0.90;;
67554;SDS011;54385;53.516;49.456;2023-11-19T00:07:37;1.52;;;0.93;;
67554;SDS011;54385;53.516;49.456;2023-11-19T00:10:10;1.17;;;0.73;;
67554;SDS011;54385;53.516;49.456;2023-11-19T00:12:41;2.72;;;1.08;;
67554;SDS011;54385;53.516;49.456;2023-11-19T00:15:10;1.55;;;0.82;;
67554;SDS011;54385;53.516;49.456;2023-11-19T00:17:37;1.20;;;0.68;;
67554;SDS011;54385;53.516;49.456;2023-11-19T00:20:14;0.60;;;0.55;;
67554;SDS011;54385;53.516;49.456;2023-11-19T00:22:42;1.30;;;0.77;;
67554;SDS011;54385;53.516;49.456;2023-11-19T00:25:12;1.80;;;1.00;;
67554;SDS011;54385;53.516;49.456;2023-11-19T00:27:39;1.02;;;0.70;;
67554;SDS011;54385;53.516;49.456;2023-11-19T00:30:06;1.27;;;0.82;;
67554;SDS011;54385;53.516;49.456;2023-11-19T00:32:36;1.38;;;0.73;;
67554;SDS011;54385;53.516;49.456;2023-11-19T00:35:05;1.88;;;0.68;;
67554;SDS011;54385;53.516;49.456;2023-11-19T00:37:33;0.80;;;0.60;;
67554;SDS011;54385;53.516;49.456;2023-11-19T00:40:00;0.93;;;0.60;;
67554;SDS011;54385;53.516;49.456;2023-11-19T00:42:27;1.27;;;0.65;;
67554;SDS011;54385;53.516;49.456;2023-11-19T00:44:54;0.85;;;0.60;;
67554;SDS011;54385;53.516;49.456;2023-11-19T00:47:21;1.05;;;0.70;;
67554;SDS011;54385;53.516;49.456;2023-11-19T00:49:48;1.20;;;0.70;;
67554;SDS011;54385;53.516;49.456;2023-11-19T00:52:14;1.10;;;0.80;;
67554;SDS011;54385;53.516;49.456;2023-11-19T00:54:44;2.05;;;0.90;;
67554;SDS011;54385;53.516;49.456;2023-11-19T00:57:11;2.05;;;0.57;;
67554;SDS011;54385;53.516;49.456;2023-11-19T00:59:40;0.80;;;0.52;;
67554;SDS011;54385;53.516;49.456;2023-11-19T01:02:08;1.48;;;0.70;;
67554;SDS011;54385;53.516;49.456;2023-11-19T01:04:35;0.95;;;0.70;;
67554;SDS011;54385;53.516;49.456;2023-11-19T01:07:02;0.90;;;0.50;;
67554;SDS011;54385;53.516;49.456;2023-11-19T01:09:32;1.05;;;0.70;;
67554;SDS011;54385;53.516;49.456;2023-11-19T01:12:00;1.52;;;0.80;;
67554;SDS011;54385;53.516;49.456;2023-11-19T01:14:28;0.80;;;0.63;;
67554;SDS011;54385;53.516;49.456;2023-11-19T01:16:55;1.58;;;0.80;;
67554;SDS011;54385;53.516;49.456;2023-11-19T01:19:21;2.15;;;0.80;;
67554;SDS011;54385;53.516;49.456;2023-11-19T01:21:49;1.00;;;0.75;;
67554;SDS011;54385;53.516;49.456;2023-11-19T01:24:15;1.80;;;0.70;;
67554;SDS011;54385;53.516;49.456;2023-11-19T01:26:43;1.65;;;0.77;;
67554;SDS011;54385;53.516;49.456;2023-11-19T01:29:11;1.55;;;0.80;;
67554;SDS011;54385;53.516;49.456;2023-11-19T01:31:41;1.10;;;0.65;;
67554;SDS011;54385;53.516;49.456;2023-11-19T01:34:08;0.90;;;0.68;;
67554;SDS011;54385;53.516;49.456;2023-11-19T01:36:35;0.90;;;0.50;;
67554;SDS011;54385;53.516;49.456;2023-11-19T01:39:01;1.17;;;0.82;;
67554;SDS011;54385;53.516;49.456;2023-11-19T01:41:33;1.23;;;0.63;;
67554;SDS011;54385;53.516;49.456;2023-11-19T01:44:02;1.13;;;0.73;;
67554;SDS011;54385;53.516;49.456;2023-11-19T01:46:30;1.38;;;0.80;;
67554;SDS011;54385;53.516;49.456;2023-11-19T01:48:59;0.50;;;0.40;;
67554;SDS011;54385;53.516;49.456;2023-11-19T01:51:26;0.90;;;0.50;;
67554;SDS011;54385;53.516;49.456;2023-11-19T01:53:55;0.90;;;0.60;;
67554;SDS011;54385;53.516;49.456;2023-11-19T01:56:24;0.45;;;0.45;;
67554;SDS011;54385;53.516;49.456;2023-11-19T01:58:53;0.95;;;0.60;;
67554;SDS011;54385;53.516;49.456;2023-11-19T02:01:22;1.08;;;0.70;;
67554;SDS011;54385;53.516;49.456;2023-11-19T02:03:52;1.75;;;0.60;;
67554;SDS011;54385;53.516;49.456;2023-11-19T02:06:19;0.85;;;0.60;;
67554;SDS011;54385;53.516;49.456;2023-11-19T02:08:46;0.85;;;0.70;;
67554;SDS011;54385;53.516;49.456;2023-11-19T02:11:13;0.88;;;0.60;;
67554;SDS011;54385;53.516;49.456;2023-11-19T02:13:40;1.20;;;0.70;;
67554;SDS011;54385;53.516;49.456;2023-11-19T02:16:07;1.13;;;0.70;;
67554;SDS011;54385;53.516;49.456;2023-11-19T02:18:35;0.50;;;0.40;;
67554;SDS011;54385;53.516;49.456;2023-11-19T02:21:02;0.85;;;0.65;;
67554;SDS011;54385;53.516;49.456;2023-11-19T02:23:31;0.88;;;0.60;;
67554;SDS011;54385;53.516;49.456;2023-11-19T02:28:35;1.27;;;0.75;;
67554;SDS011;54385;53.516;49.456;2023-11-19T02:31:03;1.10;;;0.68;;
67554;SDS011;54385;53.516;49.456;2023-11-19T02:33:39;0.88;;;0.70;;
67554;SDS011;54385;53.516;49.456;2023-11-19T02:36:06;1.05;;;0.60;;
67554;SDS011;54385;53.516;49.456;2023-11-19T02:38:34;0.75;;;0.60;;
67554;SDS011;54385;53.516;49.456;2023-11-19T02:41:05;1.50;;;0.60;;
67554;SDS011;54385;53.516;49.456;2023-11-19T02:43:33;0.70;;;0.60;;
67554;SDS011;54385;53.516;49.456;2023-11-19T02:46:04;1.95;;;0.60;;
67554;SDS011;54385;53.516;49.456;2023-11-19T02:48:35;0.93;;;0.57;;
67554;SDS011;54385;53.516;49.456;2023-11-19T02:51:02;0.80;;;0.60;;
67554;SDS011;54385;53.516;49.456;2023-11-19T02:53:29;1.05;;;0.50;;
67554;SDS011;54385;53.516;49.456;2023-11-19T02:55:56;0.70;;;0.45;;
67554;SDS011;54385;53.516;49.456;2023-11-19T02:58:37;0.40;;;0.40;;
67554;SDS011;54385;53.516;49.456;2023-11-19T03:01:04;1.10;;;0.75;;
67554;SDS011;54385;53.516;49.456;2023-11-19T03:03:49;1.67;;;0.70;;
67554;SDS011;54385;53.516;49.456;2023-11-19T03:06:22;1.35;;;0.52;;
67554;SDS011;54385;53.516;49.456;2023-11-19T03:08:49;0.55;;;0.47;;
67554;SDS011;54385;53.516;49.456;2023-11-19T03:11:16;0.90;;;0.55;;
67554;SDS011;54385;53.516;49.456;2023-11-19T03:13:45;0.95;;;0.68;;
67554;SDS011;54385;53.516;49.456;2023-11-19T03:16:12;1.52;;;0.60;;
67554;SDS011;54385;53.516;49.456;2023-11-19T03:18:42;1.33;;;0.70;;
67554;SDS011;54385;53.516;49.456;2023-11-19T03:21:09;1.45;;;0.50;;
67554;SDS011;54385;53.516;49.456;2023-11-19T03:23:44;0.98;;;0.57;;
67554;SDS011;54385;53.516;49.456;2023-11-19T03:26:10;0.77;;;0.50;;
67554;SDS011;54385;53.516;49.456;2023-11-19T03:28:37;0.60;;;0.47;;
67554;SDS011;54385;53.516;49.456;2023-11-19T03:31:06;1.17;;;0.50;;
67554;SDS011;54385;53.516;49.456;2023-11-19T03:33:35;1.08;;;0.60;;
67554;SDS011;54385;53.516;49.456;2023-11-19T03:36:03;0.77;;;0.50;;
67554;SDS011;54385;53.516;49.456;2023-11-19T03:38:30;0.98;;;0.65;;
67554;SDS011;54385;53.516;49.456;2023-11-19T03:40:56;0.90;;;0.52;;
67554;SDS011;54385;53.516;49.456;2023-11-19T03:43:23;0.50;;;0.50;;
67554;SDS011;54385;53.516;49.456;2023-11-19T03:45:50;0.75;;;0.50;;
67554;SDS011;54385;53.516;49.456;2023-11-19T03:48:19;0.57;;;0.52;;
67554;SDS011;54385;53.516;49.456;2023-11-19T03:50:46;0.68;;;0.43;;
67554;SDS011;54385;53.516;49.456;2023-11-19T03:53:12;1.48;;;0.57;;
67554;SDS011;54385;53.516;49.456;2023-11-19T03:55:39;0.68;;;0.40;;
67554;SDS011;54385;53.516;49.456;2023-11-19T03:58:05;1.70;;;0.65;;
67554;SDS011;54385;53.516;49.456;2023-11-19T04:00:32;0.95;;;0.50;;
67554;SDS011;54385;53.516;49.456;2023-11-19T04:02:59;0.85;;;0.47;;
67554;SDS011;54385;53.516;49.456;2023-11-19T04:05:29;0.57;;;0.50;;
67554;SDS011;54385;53.516;49.456;2023-11-19T04:07:55;0.68;;;0.60;;
67554;SDS011;54385;53.516;49.456;2023-11-19T04:10:22;0.65;;;0.43;;
67554;SDS011;54385;53.516;49.456;2023-11-19T04:12:49;2.17;;;0.47;;
67554;SDS011;54385;53.516;49.456;2023-11-19T04:15:16;1.20;;;0.60;;
67554;SDS011;54385;53.516;49.456;2023-11-19T04:17:42;0.63;;;0.50;;
67554;SDS011;54385;53.516;49.456;2023-11-19T04:20:09;0.52;;;0.43;;
67554;SDS011;54385;53.516;49.456;2023-11-19T04:22:39;1.20;;;0.50;;
67554;SDS011;54385;53.516;49.456;2023-11-19T04:25:06;0.90;;;0.63;;
67554;SDS011;54385;53.516;49.456;2023-11-19T04:27:33;0.70;;;0.55;;
67554;SDS011;54385;53.516;49.456;2023-11-19T04:30:00;0.65;;;0.47;;
67554;SDS011;54385;53.516;49.456;2023-11-19T04:32:28;0.57;;;0.40;;
67554;SDS011;54385;53.516;49.456;2023-11-19T04:34:56;0.90;;;0.50;;
67554;SDS011;54385;53.516;49.456;2023-11-19T04:37:22;1.40;;;0.60;;
67554;SDS011;54385;53.516;49.456;2023-11-19T04:39:49;0.77;;;0.60;;
67554;SDS011;54385;53.516;49.456;2023-11-19T04:42:15;1.05;;;0.60;;
67554;SDS011;54385;53.516;49.456;2023-11-19T04:44:45;0.73;;;0.60;;
67554;SDS011;54385;53.516;49.456;2023-11-19T04:47:12;0.60;;;0.47;;
67554;SDS011;54385;53.516;49.456;2023-11-19T04:49:42;1.15;;;0.50;;
67554;SDS011;54385;53.516;49.456;2023-11-19T04:52:09;0.90;;;0.47;;
67554;SDS011;54385;53.516;49.456;2023-11-19T04:54:41;0.65;;;0.50;;
67554;SDS011;54385;53.516;49.456;2023-11-19T04:57:09;0.40;;;0.40;;
67554;SDS011;54385;53.516;49.456;2023-11-19T04:59:39;0.88;;;0.50;;
67554;SDS011;54385;53.516;49.456;2023-11-19T05:02:06;1.23;;;0.50;;
67554;SDS011;54385;53.516;49.456;2023-11-19T05:04:35;1.27;;;0.50;;
67554;SDS011;54385;53.516;49.456;2023-11-19T05:07:03;0.60;;;0.50;;
67554;SDS011;54385;53.516;49.456;2023-11-19T05:09:30;0.50;;;0.45;;
67554;SDS011;54385;53.516;49.456;2023-11-19T05:11:57;1.67;;;0.80;;
67554;SDS011;54385;53.516;49.456;2023-11-19T05:14:23;0.43;;;0.40;;
67554;SDS011;54385;53.516;49.456;2023-11-19T05:16:50;1.02;;;0.57;;
67554;SDS011;54385;53.516;49.456;2023-11-19T05:19:17;0.70;;;0.60;;
67554;SDS011;54385;53.516;49.456;2023-11-19T05:21:44;1.13;;;0.63;;
67554;SDS011;54385;53.516;49.456;2023-11-19T05:24:11;0.95;;;0.43;;
67554;SDS011;54385;53.516;49.456;2023-11-19T05:26:40;1.30;;;0.57;;
67554;SDS011;54385;53.516;49.456;2023-11-19T05:29:07;0.80;;;0.60;;
67554;SDS011;54385;53.516;49.456;2023-11-19T05:31:34;0.93;;;0.50;;
67554;SDS011;54385;53.516;49.456;2023-11-19T05:34:00;0.68;;;0.50;;
67554;SDS011;54385;53.516;49.456;2023-11-19T05:36:27;0.68;;;0.60;;
67554;SDS011;54385;53.516;49.456;2023-11-19T05:38:54;0.70;;;0.50;;
67554;SDS011;54385;53.516;49.456;2023-11-19T05:41:23;0.63;;;0.40;;
67554;SDS011;54385;53.516;49.456;2023-11-19T05:43:50;0.75;;;0.50;;
67554;SDS011;54385;53.516;49.456;2023-11-19T05:46:17;0.80;;;0.55;;
67554;SDS011;54385;53.516;49.456;2023-11-19T05:48:44;0.85;;;0.60;;
67554;SDS011;54385;53.516;49.456;2023-11-19T05:51:15;1.23;;;0.50;;
67554;SDS011;54385;53.516;49.456;2023-11-19T05:53:42;0.70;;;0.50;;
67554;SDS011;54385;53.516;49.456;2023-11-19T05:56:09;0.55;;;0.50;;
67554;SDS011;54385;53.516;49.456;2023-11-19T05:58:41;0.65;;;0.50;;
67554;SDS011;54385;53.516;49.456;2023-11-19T06:01:08;0.50;;;0.40;;
67554;SDS011;54385;53.516;49.456;2023-11-19T06:03:35;1.73;;;0.50;;
67554;SDS011;54385;53.516;49.456;2023-11-19T06:06:02;1.10;;;0.60;;
67554;SDS011;54385;53.516;49.456;2023-11-19T06:08:29;0.65;;;0.50;;
67554;SDS011;54385;53.516;49.456;2023-11-19T06:10:56;0.80;;;0.40;;
67554;SDS011;54385;53.516;49.456;2023-11-19T06:13:23;0.63;;;0.45;;
67554;SDS011;54385;53.516;49.456;2023-11-19T06:15:53;0.77;;;0.60;;
67554;SDS011;54385;53.516;49.456;2023-11-19T06:18:19;0.70;;;0.50;;
67554;SDS011;54385;53.516;49.456;2023-11-19T06:20:46;1.50;;;0.60;;
67554;SDS011;54385;53.516;49.456;2023-11-19T06:23:15;1.20;;;0.70;;
67554;SDS011;54385;53.516;49.456;2023-11-19T06:25:43;0.70;;;0.60;;
67554;SDS011;54385;53.516;49.456;2023-11-19T06:28:12;0.52;;;0.40;;
67554;SDS011;54385;53.516;49.456;2023-11-19T06:30:39;0.50;;;0.40;;
67554;SDS011;54385;53.516;49.456;2023-11-19T06:33:07;1.13;;;0.63;;
67554;SDS011;54385;53.516;49.456;2023-11-19T06:35:34;0.93;;;0.60;;
67554;SDS011;54385;53.516;49.456;2023-11-19T06:38:04;0.80;;;0.60;;
67554;SDS011;54385;53.516;49.456;2023-11-19T06:40:34;1.10;;;0.55;;
67554;SDS011;54385;53.516;49.456;2023-11-19T06:43:01;1.35;;;0.73;;
67554;SDS011;54385;53.516;49.456;2023-11-19T06:45:34;1.13;;;0.70;;
67554;SDS011;54385;53.516;49.456;2023-11-19T06:48:03;0.85;;;0.60;;
67554;SDS011;54385;53.516;49.456;2023-11-19T06:50:30;0.85;;;0.60;;
67554;SDS011;54385;53.516;49.456;2023-11-19T06:52:57;1.02;;;0.60;;
67554;SDS011;54385;53.516;49.456;2023-11-19T06:55:24;1.02;;;0.60;;
67554;SDS011;54385;53.516;49.456;2023-11-19T06:57:52;0.85;;;0.60;;
67554;SDS011;54385;53.516;49.456;2023-11-19T07:00:18;1.13;;;0.60;;
67554;SDS011;54385;53.516;49.456;2023-11-19T07:02:47;1.00;;;0.60;;
67554;SDS011;54385;53.516;49.456;2023-11-19T07:05:15;0.60;;;0.50;;
67554;SDS011;54385;53.516;49.456;2023-11-19T07:07:44;1.02;;;0.63;;
67554;SDS011;54385;53.516;49.456;2023-11-19T07:10:12;2.08;;;0.93;;
67554;SDS011;54385;53.516;49.456;2023-11-19T07:12:39;0.57;;;0.52;;
67554;SDS011;54385;53.516;49.456;2023-11-19T07:15:05;0.90;;;0.60;;
67554;SDS011;54385;53.516;49.456;2023-11-19T07:17:32;0.80;;;0.50;;
67554;SDS011;54385;53.516;49.456;2023-11-19T07:20:02;1.70;;;0.50;;
67554;SDS011;54385;53.516;49.456;2023-11-19T07:22:30;1.10;;;0.80;;
67554;SDS011;54385;53.516;49.456;2023-11-19T07:24:56;1.15;;;0.63;;
67554;SDS011;54385;53.516;49.456;2023-11-19T07:27:24;0.73;;;0.60;;
67554;SDS011;54385;53.516;49.456;2023-11-19T07:29:50;1.23;;;0.65;;
67554;SDS011;54385;53.516;49.456;2023-11-19T07:32:17;1.05;;;0.70;;
67554;SDS011;54385;53.516;49.456;2023-11-19T07:34:43;1.30;;;0.65;;
67554;SDS011;54385;53.516;49.456;2023-11-19T07:37:10;1.23;;;0.80;;
67554;SDS011;54385;53.516;49.456;2023-11-19T07:39:38;0.82;;;0.70;;
67554;SDS011;54385;53.516;49.456;2023-11-19T07:42:06;1.02;;;0.63;;
67554;SDS011;54385;53.516;49.456;2023-11-19T07:44:33;0.70;;;0.68;;
67554;SDS011;54385;53.516;49.456;2023-11-19T07:46:59;1.88;;;0.70;;
67554;SDS011;54385;53.516;49.456;2023-11-19T07:49:26;1.58;;;0.95;;
67554;SDS011;54385;53.516;49.456;2023-11-19T07:51:56;2.13;;;0.60;;
67554;SDS011;54385;53.516;49.456;2023-11-19T07:54:25;1.15;;;0.80;;
67554;SDS011;54385;53.516;49.456;2023-11-19T07:59:24;1.40;;;0.82;;
67554;SDS011;54385;53.516;49.456;2023-11-19T08:01:51;1.17;;;0.88;;
67554;SDS011;54385;53.516;49.456;2023-11-19T08:04:20;0.93;;;0.60;;
67554;SDS011;54385;53.516;49.456;2023-11-19T08:06:47;1.30;;;0.70;;
67554;SDS011;54385;53.516;49.456;2023-11-19T08:09:14;1.30;;;0.70;;
67554;SDS011;54385;53.516;49.456;2023-11-19T08:11:41;1.15;;;0.75;;
67554;SDS011;54385;53.516;49.456;2023-11-19T08:14:08;1.30;;;0.90;;
67554;SDS011;54385;53.516;49.456;2023-11-19T08:16:39;1.20;;;0.80;;
67554;SDS011;54385;53.516;49.456;2023-11-19T08:19:06;1.30;;;0.80;;
67554;SDS011;54385;53.516;49.456;2023-11-19T08:21:34;0.80;;;0.70;;
67554;SDS011;54385;53.516;49.456;2023-11-19T08:24:04;1.30;;;0.80;;
67554;SDS011;54385;53.516;49.456;2023-11-19T08:26:36;1.63;;;0.80;;
67554;SDS011;54385;53.516;49.456;2023-11-19T08:29:03;1.40;;;0.93;;
67554;SDS011;54385;53.516;49.456;2023-11-19T08:31:30;1.02;;;0.70;;
67554;SDS011;54385;53.516;49.456;2023-11-19T08:33:57;1.45;;;0.82;;
67554;SDS011;54385;53.516;49.456;2023-11-19T08:36:24;1.25;;;0.80;;
67554;SDS011;54385;53.516;49.456;2023-11-19T08:38:57;1.45;;;0.95;;
67554;SDS011;54385;53.516;49.456;2023-11-19T08:41:26;1.98;;;1.10;;
67554;SDS011;54385;53.516;49.456;2023-11-19T08:43:55;1.55;;;0.90;;
67554;SDS011;54385;53.516;49.456;2023-11-19T08:46:23;1.30;;;0.90;;
67554;SDS011;54385;53.516;49.456;2023-11-19T08:48:51;1.27;;;0.98;;
67554;SDS011;54385;53.516;49.456;2023-11-19T08:51:18;1.10;;;0.70;;
67554;SDS011;54385;53.516;49.456;2023-11-19T08:53:45;1.58;;;0.90;;
67554;SDS011;54385;53.516;49.456;2023-11-19T08:56:20;2.72;;;1.05;;
67554;SDS011;54385;53.516;49.456;2023-11-19T08:58:50;1.42;;;1.02;;
67554;SDS011;54385;53.516;49.456;2023-11-19T09:01:17;1.88;;;1.10;;
67554;SDS011;54385;53.516;49.456;2023-11-19T09:03:44;1.17;;;0.90;;
67554;SDS011;54385;53.516;49.456;2023-11-19T09:06:13;1.50;;;0.90;;
67554;SDS011;54385;53.516;49.456;2023-11-19T09:08:41;1.45;;;0.90;;
67554;SDS011;54385;53.516;49.456;2023-11-19T09:11:09;2.13;;;1.10;;
67554;SDS011;54385;53.516;49.456;2023-11-19T09:13:36;1.35;;;0.98;;
67554;SDS011;54385;53.516;49.456;2023-11-19T09:16:03;2.28;;;0.88;;
67554;SDS011;54385;53.516;49.456;2023-11-19T09:18:31;1.05;;;0.80;;
67554;SDS011;54385;53.516;49.456;2023-11-19T09:20:58;1.10;;;0.88;;
67554;SDS011;54385;53.516;49.456;2023-11-19T09:23:25;1.70;;;1.00;;
67554;SDS011;54385;53.516;49.456;2023-11-19T09:25:56;1.08;;;0.88;;
67554;SDS011;54385;53.516;49.456;2023-11-19T09:28:26;2.35;;;0.90;;
67554;SDS011;54385;53.516;49.456;2023-11-19T09:30:56;1.70;;;1.02;;
67554;SDS011;54385;53.516;49.456;2023-11-19T09:33:23;1.90;;;1.27;;
67554;SDS011;54385;53.516;49.456;2023-11-19T09:35:52;1.77;;;1.08;;
67554;SDS011;54385;53.516;49.456;2023-11-19T09:38:22;1.27;;;0.95;;
67554;SDS011;54385;53.516;49.456;2023-11-19T09:40:49;1.80;;;1.27;;
67554;SDS011;54385;53.516;49.456;2023-11-19T09:43:16;1.50;;;1.17;;
67554;SDS011;54385;53.516;49.456;2023-11-19T09:48:19;1.40;;;1.00;;
67554;SDS011;54385;53.516;49.456;2023-11-19T09:50:48;2.88;;;1.40;;
67554;SDS011;54385;53.516;49.456;2023-11-19T09:53:17;1.50;;;1.20;;
67554;SDS011;54385;53.516;49.456;2023-11-19T09:55:46;1.40;;;1.00;;
67554;SDS011;54385;53.516;49.456;2023-11-19T09:58:16;1.77;;;1.20;;
67554;SDS011;54385;53.516;49.456;2023-11-19T10:00:43;3.05;;;1.00;;
67554;SDS011;54385;53.516;49.456;2023-11-19T10:03:10;1.55;;;1.00;;
67554;SDS011;54385;53.516;49.456;2023-11-19T10:05:38;1.52;;;1.10;;
67554;SDS011;54385;53.516;49.456;2023-11-19T10:08:07;1.35;;;1.02;;
67554;SDS011;54385;53.516;49.456;2023-11-19T10:10:37;1.75;;;1.27;;
67554;SDS011;54385;53.516;49.456;2023-11-19T10:13:04;1.65;;;1.20;;
67554;SDS011;54385;53.516;49.456;2023-11-19T10:15:33;1.50;;;1.13;;
67554;SDS011;54385;53.516;49.456;2023-11-19T10:18:02;2.65;;;1.30;;
67554;SDS011;54385;53.516;49.456;2023-11-19T10:20:38;2.05;;;1.25;;
67554;SDS011;54385;53.516;49.456;2023-11-19T10:23:07;2.00;;;1.23;;
67554;SDS011;54385;53.516;49.456;2023-11-19T10:25:37;1.60;;;0.98;;
67554;SDS011;54385;53.516;49.456;2023-11-19T10:28:11;1.45;;;0.80;;
67554;SDS011;54385;53.516;49.456;2023-11-19T10:30:49;1.67;;;1.20;;
67554;SDS011;54385;53.516;49.456;2023-11-19T10:33:22;3.13;;;1.13;;
67554;SDS011;54385;53.516;49.456;2023-11-19T10:35:58;1.88;;;1.20;;
67554;SDS011;54385;53.516;49.456;2023-11-19T10:38:25;1.70;;;1.20;;
67554;SDS011;54385;53.516;49.456;2023-11-19T10:40:54;1.83;;;1.20;;
67554;SDS011;54385;53.516;49.456;2023-11-19T10:43:22;1.73;;;1.10;;
67554;SDS011;54385;53.516;49.456;2023-11-19T10:45:49;2.40;;;1.42;;
67554;SDS011;54385;53.516;49.456;2023-11-19T10:48:16;1.80;;;1.13;;
67554;SDS011;54385;53.516;49.456;2023-11-19T10:50:43;1.77;;;1.27;;
67554;SDS011;54385;53.516;49.456;2023-11-19T10:53:14;2.47;;;1.30;;
67554;SDS011;54385;53.516;49.456;2023-11-19T10:55:44;1.92;;;1.20;;
67554;SDS011;54385;53.516;49.456;2023-11-19T10:58:15;1.70;;;1.10;;
67554;SDS011;54385;53.516;49.456;2023-11-19T11:00:46;2.03;;;1.33;;
67554;SDS011;54385;53.516;49.456;2023-11-19T11:03:26;1.88;;;1.27;;
67554;SDS011;54385;53.516;49.456;2023-11-19T11:05:57;1.70;;;1.13;;
67554;SDS011;54385;53.516;49.456;2023-11-19T11:08:24;2.25;;;1.33;;
67554;SDS011;54385;53.516;49.456;2023-11-19T11:10:52;2.17;;;1.25;;
67554;SDS011;54385;53.516;49.456;2023-11-19T11:13:22;2.85;;;1.60;;
67554;SDS011;54385;53.516;49.456;2023-11-19T11:15:58;2.45;;;1.33;;
67554;SDS011;54385;53.516;49.456;2023-11-19T11:18:24;2.03;;;1.30;;
67554;SDS011;54385;53.516;49.456;2023-11-19T11:20:52;2.40;;;1.35;;
67554;SDS011;54385;53.516;49.456;2023-11-19T11:31:31;2.00;;;1.30;;
67554;SDS011;54385;53.516;49.456;2023-11-19T11:39:52;2.88;;;1.50;;
67554;SDS011;54385;53.516;49.456;2023-11-19T11:44:59;1.40;;;1.00;;
67554;SDS011;54385;53.516;49.456;2023-11-19T11:50:14;1.77;;;1.20;;
67554;SDS011;54385;53.516;49.456;2023-11-19T11:57:50;2.00;;;1.42;;
67554;SDS011;54385;53.516;49.456;2023-11-19T12:00:33;1.90;;;1.30;;
67554;SDS011;54385;53.516;49.456;2023-11-19T12:03:04;2.00;;;1.35;;
67554;SDS011;54385;53.516;49.456;2023-11-19T12:05:33;2.47;;;1.35;;
67554;SDS011;54385;53.516;49.456;2023-11-19T12:10:36;3.17;;;1.63;;
67554;SDS011;54385;53.516;49.456;2023-11-19T12:13:13;2.08;;;1.52;;
67554;SDS011;54385;53.516;49.456;2023-11-19T12:18:31;2.50;;;1.52;;
67554;SDS011;54385;53.516;49.456;2023-11-19T12:21:01;2.55;;;1.30;;
67554;SDS011;54385;53.516;49.456;2023-11-19T12:23:31;3.10;;;1.75;;
67554;SDS011;54385;53.516;49.456;2023-11-19T12:25:58;2.70;;;1.80;;
67554;SDS011;54385;53.516;49.456;2023-11-19T12:28:25;2.95;;;1.63;;
67554;SDS011;54385;53.516;49.456;2023-11-19T12:31:06;2.15;;;1.50;;
67554;SDS011;54385;53.516;49.456;2023-11-19T12:33:37;1.95;;;1.50;;
67554;SDS011;54385;53.516;49.456;2023-11-19T12:36:04;2.38;;;1.42;;
67554;SDS011;54385;53.516;49.456;2023-11-19T12:38:31;1.98;;;1.42;;
67554;SDS011;54385;53.516;49.456;2023-11-19T12:41:06;2.25;;;1.63;;
67554;SDS011;54385;53.516;49.456;2023-11-19T12:43:34;2.15;;;1.42;;
67554;SDS011;54385;53.516;49.456;2023-11-19T12:46:01;3.70;;;1.70;;
67554;SDS011;54385;53.516;49.456;2023-11-19T12:48:31;2.38;;;1.50;;
67554;SDS011;54385;53.516;49.456;2023-11-19T12:50:59;3.10;;;2.00;;
67554;SDS011;54385;53.516;49.456;2023-11-19T12:53:27;2.50;;;1.70;;
67554;SDS011;54385;53.516;49.456;2023-11-19T12:55:55;2.13;;;1.48;;
67554;SDS011;54385;53.516;49.456;2023-11-19T12:58:55;2.50;;;1.60;;
67554;SDS011;54385;53.516;49.456;2023-11-19T13:01:18;2.72;;;1.50;;
67554;SDS011;54385;53.516;49.456;2023-11-19T13:03:46;2.40;;;1.60;;
67554;SDS011;54385;53.516;49.456;2023-11-19T13:06:14;2.33;;;1.58;;
67554;SDS011;54385;53.516;49.456;2023-11-19T13:08:45;2.55;;;1.73;;
67554;SDS011;54385;53.516;49.456;2023-11-19T13:11:30;2.40;;;1.60;;
67554;SDS011;54385;53.516;49.456;2023-11-19T13:13:59;2.78;;;1.60;;
67554;SDS011;54385;53.516;49.456;2023-11-19T13:16:27;2.63;;;1.50;;
67554;SDS011;54385;53.516;49.456;2023-11-19T13:18:54;2.47;;;1.60;;
67554;SDS011;54385;53.516;49.456;2023-11-19T13:21:21;2.13;;;1.58;;
67554;SDS011;54385;53.516;49.456;2023-11-19T13:23:50;2.55;;;1.48;;
67554;SDS011;54385;53.516;49.456;2023-11-19T13:26:20;2.90;;;1.70;;
67554;SDS011;54385;53.516;49.456;2023-11-19T13:29:07;3.35;;;1.90;;
67554;SDS011;54385;53.516;49.456;2023-11-19T13:31:37;2.53;;;1.45;;
67554;SDS011;54385;53.516;49.456;2023-11-19T13:34:06;3.13;;;1.52;;
67554;SDS011;54385;53.516;49.456;2023-11-19T13:36:34;2.72;;;1.67;;
67554;SDS011;54385;53.516;49.456;2023-11-19T13:39:01;2.75;;;1.70;;
67554;SDS011;54385;53.516;49.456;2023-11-19T13:41:27;3.22;;;1.75;;
67554;SDS011;54385;53.516;49.456;2023-11-19T13:43:57;2.78;;;1.80;;
67554;SDS011;54385;53.516;49.456;2023-11-19T13:46:28;2.72;;;1.70;;
67554;SDS011;54385;53.516;49.456;2023-11-19T13:48:56;2.58;;;1.70;;
67554;SDS011;54385;53.516;49.456;2023-11-19T13:51:22;2.85;;;1.98;;
67554;SDS011;54385;53.516;49.456;2023-11-19T13:53:49;3.40;;;1.92;;
67554;SDS011;54385;53.516;49.456;2023-11-19T13:56:15;2.33;;;1.80;;
67554;SDS011;54385;53.516;49.456;2023-11-19T13:58:43;2.25;;;1.70;;
67554;SDS011;54385;53.516;49.456;2023-11-19T14:01:09;2.53;;;1.65;;
67554;SDS011;54385;53.516;49.456;2023-11-19T14:03:38;2.20;;;1.50;;
67554;SDS011;54385;53.516;49.456;2023-11-19T14:06:05;2.78;;;2.17;;
67554;SDS011;54385;53.516;49.456;2023-11-19T14:08:34;2.10;;;1.67;;
67554;SDS011;54385;53.516;49.456;2023-11-19T14:11:00;3.22;;;1.85;;
67554;SDS011;54385;53.516;49.456;2023-11-19T14:13:34;2.30;;;1.50;;
67554;SDS011;54385;53.516;49.456;2023-11-19T14:16:01;2.88;;;1.88;;
67554;SDS011;54385;53.516;49.456;2023-11-19T14:18:32;2.17;;;1.60;;
67554;SDS011;54385;53.516;49.456;2023-11-19T14:23:34;2.53;;;1.70;;
67554;SDS011;54385;53.516;49.456;2023-11-19T14:26:03;2.40;;;1.70;;
67554;SDS011;54385;53.516;49.456;2023-11-19T14:28:31;2.58;;;1.65;;
67554;SDS011;54385;53.516;49.456;2023-11-19T14:31:04;2.85;;;1.73;;
67554;SDS011;54385;53.516;49.456;2023-11-19T14:33:31;3.65;;;1.70;;
67554;SDS011;54385;53.516;49.456;2023-11-19T14:35:58;2.83;;;1.90;;
67554;SDS011;54385;53.516;49.456;2023-11-19T14:38:34;2.10;;;1.38;;
67554;SDS011;54385;53.516;49.456;2023-11-19T14:41:00;3.65;;;1.88;;
67554;SDS011;54385;53.516;49.456;2023-11-19T14:43:32;3.00;;;1.70;;
67554;SDS011;54385;53.516;49.456;2023-11-19T14:45:59;2.00;;;1.50;;
67554;SDS011;54385;53.516;49.456;2023-11-19T14:48:29;2.60;;;1.63;;
67554;SDS011;54385;53.516;49.456;2023-11-19T14:50:55;2.97;;;1.58;;
67554;SDS011;54385;53.516;49.456;2023-11-19T14:53:22;2.70;;;1.88;;
67554;SDS011;54385;53.516;49.456;2023-11-19T14:55:48;3.83;;;1.70;;
67554;SDS011;54385;53.516;49.456;2023-11-19T14:58:15;3.58;;;2.30;;
67554;SDS011;54385;53.516;49.456;2023-11-19T15:00:49;3.95;;;1.85;;
67554;SDS011;54385;53.516;49.456;2023-11-19T15:03:18;2.55;;;1.70;;
67554;SDS011;54385;53.516;49.456;2023-11-19T15:05:45;2.40;;;1.42;;
67554;SDS011;54385;53.516;49.456;2023-11-19T15:08:12;2.38;;;1.48;;
67554;SDS011;54385;53.516;49.456;2023-11-19T15:10:47;2.85;;;1.80;;
67554;SDS011;54385;53.516;49.456;2023-11-19T15:13:16;2.67;;;1.65;;
67554;SDS011;54385;53.516;49.456;2023-11-19T15:15:42;2.70;;;1.83;;
67554;SDS011;54385;53.516;49.456;2023-11-19T15:18:09;3.08;;;1.80;;
67554;SDS011;54385;53.516;49.456;2023-11-19T15:20:35;2.88;;;1.70;;